createdAt,value
2019-02-09T00:02:38.642Z,14.83
2019-02-09T00:08:40.856Z,16.17
2019-02-09T00:14:42.993Z,15.83
2019-02-09T00:20:45.219Z,19.12
2019-02-09T00:26:47.410Z,14.68
2019-02-09T00:32:49.560Z,16.62
2019-02-09T00:38:52.772Z,16.37
2019-02-09T00:44:54.916Z,16.52
2019-02-09T00:50:57.041Z,12.75
2019-02-09T00:56:59.389Z,10.65
2019-02-09T01:03:01.511Z,16.07
2019-02-09T01:09:09.528Z,15.78
2019-02-09T01:15:13.236Z,12.35
2019-02-09T01:21:15.423Z,14.65
2019-02-09T01:27:20.864Z,16.30
2019-02-09T01:33:23.063Z,12.88
2019-02-09T01:39:25.271Z,14.15
2019-02-09T01:45:28.411Z,15.35
2019-02-09T01:51:30.775Z,15.53
2019-02-09T01:57:32.950Z,12.90
2019-02-09T02:03:35.228Z,12.58
2019-02-09T02:09:37.403Z,13.65
2019-02-09T02:15:39.782Z,13.98
2019-02-09T02:21:42.039Z,11.95
2019-02-09T02:27:44.243Z,16.57
2019-02-09T02:33:46.373Z,15.18
2019-02-09T02:39:48.756Z,11.50
2019-02-09T02:45:51.116Z,15.18
2019-02-09T02:51:53.230Z,13.83
2019-02-09T02:57:55.480Z,11.22
2019-02-09T03:03:57.705Z,13.85
2019-02-09T03:10:00.019Z,14.78
2019-02-09T03:16:02.296Z,16.93
2019-02-09T03:22:04.416Z,16.37
2019-02-09T03:28:06.653Z,13.13
2019-02-09T03:34:08.811Z,10.70
2019-02-09T03:40:13.303Z,13.90
2019-02-09T03:46:15.445Z,14.90
2019-02-09T03:52:18.678Z,13.15
2019-02-09T03:58:20.815Z,15.90
2019-02-09T04:04:22.935Z,14.83
2019-02-09T04:10:25.232Z,16.85
2019-02-09T04:16:27.516Z,11.03
2019-02-09T04:22:29.747Z,16.12
2019-02-09T04:28:31.926Z,15.93
2019-02-09T04:34:34.034Z,16.37
2019-02-09T04:40:36.209Z,10.63
2019-02-09T04:46:38.309Z,11.40
2019-02-09T04:52:40.453Z,8.60
2019-02-09T04:58:42.647Z,12.90
2019-02-09T05:04:44.780Z,11.18
2019-02-09T05:10:46.931Z,11.40
2019-02-09T05:17:08.612Z,13.98
2019-02-09T05:23:10.775Z,12.20
2019-02-09T05:29:13.019Z,11.55
2019-02-09T05:35:15.282Z,13.03
2019-02-09T05:41:17.423Z,11.90
2019-02-09T05:47:19.647Z,10.98
2019-02-09T05:53:21.797Z,14.40
2019-02-09T05:59:24.028Z,12.28
2019-02-09T06:05:26.186Z,15.48
2019-02-09T06:11:28.515Z,14.35
2019-02-09T06:17:30.663Z,10.68
2019-02-09T06:23:33.056Z,9.58
2019-02-09T06:29:35.288Z,14.43
2019-02-09T06:35:37.495Z,11.00
2019-02-09T06:41:39.820Z,13.25
2019-02-09T06:47:42.135Z,11.20
2019-02-09T06:53:44.340Z,12.80
2019-02-09T06:59:46.671Z,14.98
2019-02-09T07:05:49.207Z,13.88
2019-02-09T07:11:51.436Z,16.73
2019-02-09T07:17:53.591Z,16.32
2019-02-09T07:23:55.889Z,12.95
2019-02-09T07:29:58.365Z,13.90
2019-02-09T07:36:00.592Z,14.75
2019-02-09T07:42:03.242Z,10.95
2019-02-09T07:48:05.715Z,13.58
2019-02-09T07:54:09.182Z,10.82
2019-02-09T08:00:19.934Z,11.03
2019-02-09T08:06:22.311Z,14.78
2019-02-09T08:12:24.669Z,10.80
2019-02-09T08:18:26.894Z,12.18
2019-02-09T08:24:30.375Z,8.83
2019-02-09T08:30:35.517Z,10.25
2019-02-09T08:36:39.783Z,10.60
2019-02-09T08:42:41.933Z,12.30
2019-02-09T08:48:44.085Z,15.30
2019-02-09T08:54:46.705Z,20.45
2019-02-09T09:00:49.226Z,19.32
2019-02-09T09:06:51.492Z,20.40
2019-02-09T09:12:53.766Z,21.42
2019-02-09T09:18:56.007Z,23.05
2019-02-09T09:24:58.412Z,30.32
2019-02-09T09:31:01.849Z,20.95
2019-02-09T09:37:04.249Z,23.77
2019-02-09T09:43:06.675Z,21.82
2019-02-09T09:49:09.594Z,23.55
2019-02-09T09:55:12.835Z,24.07
2019-02-09T10:01:16.042Z,21.33
2019-02-09T10:07:19.231Z,24.40
2019-02-09T10:13:21.475Z,19.52
2019-02-09T10:19:23.718Z,24.18
2019-02-09T10:25:25.987Z,24.35
2019-02-09T10:31:29.535Z,31.25
2019-02-09T10:37:33.886Z,28.73
2019-02-09T10:43:37.143Z,22.82
2019-02-09T10:49:40.654Z,23.27
2019-02-09T10:55:42.808Z,22.37
2019-02-09T11:01:44.957Z,24.20
2019-02-09T11:07:47.256Z,24.90
2019-02-09T11:13:49.791Z,19.37
2019-02-09T11:19:52.099Z,20.85
2019-02-09T11:25:54.353Z,23.00
2019-02-09T11:31:56.768Z,16.52
2019-02-09T11:38:01.107Z,21.30
2019-02-09T11:44:03.451Z,18.50
2019-02-09T11:50:11.139Z,18.07
2019-02-09T11:56:15.637Z,19.90
2019-02-09T12:02:19.077Z,20.80
2019-02-09T12:08:23.404Z,21.80
2019-02-09T12:14:27.685Z,19.60
2019-02-09T12:20:29.862Z,16.70
2019-02-09T12:26:32.275Z,20.88
2019-02-09T12:32:39.837Z,16.55
2019-02-09T12:38:42.131Z,17.87
2019-02-09T12:44:44.377Z,14.20
2019-02-09T12:50:47.724Z,14.43
2019-02-09T12:56:51.177Z,17.05
2019-02-09T13:02:54.065Z,17.00
2019-02-09T13:08:56.400Z,11.93
2019-02-09T13:14:58.686Z,15.83
2019-02-09T13:21:00.864Z,15.30
2019-02-09T13:27:03.198Z,15.10
2019-02-09T13:33:06.887Z,14.13
2019-02-09T13:39:11.164Z,15.00
2019-02-09T13:45:20.446Z,17.02
2019-02-09T13:51:22.810Z,20.92
2019-02-09T13:57:25.159Z,16.37
2019-02-09T14:03:27.427Z,19.77
2019-02-09T14:09:32.308Z,20.90
2019-02-09T14:15:34.638Z,23.55
2019-02-09T14:21:36.808Z,21.82
2019-02-09T14:27:39.155Z,18.42
2019-02-09T14:33:41.587Z,23.67
2019-02-09T14:39:45.861Z,23.32
2019-02-09T14:45:48.240Z,20.40
2019-02-09T14:51:50.593Z,19.25
2019-02-09T14:57:55.801Z,19.80
2019-02-09T15:04:02.801Z,24.25
2019-02-09T15:10:04.429Z,21.60
2019-02-09T15:16:31.906Z,51.88
2019-02-09T15:22:36.256Z,24.43
2019-02-09T15:28:40.015Z,22.45
2019-02-09T15:34:46.397Z,18.60
2019-02-09T15:40:54.687Z,20.52
2019-02-09T15:46:56.915Z,19.80
2019-02-09T15:53:01.616Z,21.17
2019-02-09T15:59:04.291Z,20.32
2019-02-09T16:05:07.735Z,15.50
2019-02-09T16:11:10.795Z,20.55
2019-02-09T16:17:13.184Z,17.45
2019-02-09T16:23:16.640Z,17.45
2019-02-09T16:29:19.179Z,29.85
2019-02-09T16:35:23.179Z,30.68
2019-02-09T16:41:25.724Z,28.32
2019-02-09T16:47:27.979Z,24.60
2019-02-09T16:53:30.392Z,21.35
2019-02-09T16:59:32.728Z,20.62
2019-02-09T17:05:34.918Z,23.62
2019-02-09T17:11:39.226Z,35.20
2019-02-09T17:17:41.604Z,26.48
2019-02-09T17:23:43.782Z,35.60
2019-02-09T17:29:46.094Z,24.02
2019-02-09T17:35:49.984Z,29.23
2019-02-09T17:41:54.043Z,26.50
2019-02-09T17:47:56.711Z,41.18
2019-02-09T17:53:58.937Z,41.73
2019-02-09T18:00:01.415Z,27.87
2019-02-09T18:06:03.877Z,27.48
2019-02-09T18:12:06.129Z,26.60
2019-02-09T18:18:08.575Z,30.95
2019-02-09T18:24:10.997Z,45.75
2019-02-09T18:30:15.825Z,87.47
2019-02-09T18:36:18.467Z,71.62
2019-02-09T18:42:20.804Z,28.47
2019-02-09T18:48:23.277Z,40.90
2019-02-09T18:54:25.480Z,28.38
2019-02-09T19:00:29.513Z,25.45
2019-02-09T19:06:32.166Z,29.87
2019-02-09T19:12:34.580Z,25.17
2019-02-09T19:18:37.060Z,27.55
2019-02-09T19:24:39.436Z,45.17
2019-02-09T19:30:41.821Z,24.70
2019-02-09T19:36:46.531Z,26.15
2019-02-09T19:42:50.945Z,25.88
2019-02-09T19:48:53.248Z,24.75
2019-02-09T19:54:55.490Z,24.20
2019-02-09T20:00:57.835Z,25.70
2019-02-09T20:07:00.288Z,26.55
2019-02-09T20:13:02.787Z,28.20
2019-02-09T20:19:05.156Z,28.57
2019-02-09T20:25:10.519Z,28.73
2019-02-09T20:31:12.944Z,28.57
2019-02-09T20:37:16.433Z,26.40
2019-02-09T20:43:19.241Z,30.02
2019-02-09T20:49:21.447Z,30.62
2019-02-09T20:55:23.863Z,32.48
2019-02-09T21:01:26.448Z,44.08
2019-02-09T21:07:29.992Z,27.85
2019-02-09T21:13:32.367Z,48.73
2019-02-09T21:19:34.755Z,147.87
2019-02-09T21:25:38.906Z,146.37
2019-02-09T21:31:41.260Z,139.97
2019-02-09T21:37:45.497Z,95.00
2019-02-09T21:43:47.736Z,112.97
2019-02-09T21:49:52.087Z,106.85
2019-02-09T21:55:54.369Z,30.00
2019-02-09T22:01:56.618Z,29.25
2019-02-09T22:07:58.820Z,28.12
2019-02-09T22:14:01.126Z,21.60
2019-02-09T22:20:06.801Z,25.77
2019-02-09T22:26:13.218Z,23.55
2019-02-09T22:32:13.100Z,27.07
2019-02-09T22:38:17.111Z,26.17
2019-02-09T22:44:19.352Z,28.27
2019-02-09T22:50:24.056Z,24.70
2019-02-09T22:56:26.262Z,27.58
2019-02-09T23:02:28.450Z,22.45
2019-02-09T23:08:30.628Z,22.98
2019-02-09T23:14:32.787Z,20.27
2019-02-09T23:20:35.095Z,21.25
2019-02-09T23:26:37.275Z,18.67
2019-02-09T23:32:39.571Z,23.02
2019-02-09T23:38:41.794Z,25.37
2019-02-09T23:44:45.635Z,21.20
2019-02-09T23:50:48.006Z,24.12
2019-02-09T23:56:50.180Z,23.35
